Time;durP1;ratioP1;P1;durP2;ratioP2;P2;SDS_P1;SDS_P2;PMS_P1;PMS_P2;Temp;Humidity;BMP_temperature;BMP_pressure;BME280_temperature;BME280_humidity;BME280_pressure;Samples;Min_cycle;Max_cycle;Signal;HPM_P1;HPM_P2
2022/12/25 00:02:13;;;;;;;1.80;1.50;;;9.60;99.90;;;;;;4993338;28;20918;-72
2022/12/25 00:04:38;;;;;;;2.78;1.55;;;9.60;99.90;;;;;;4992715;28;20754;-72
2022/12/25 00:07:04;;;;;;;2.10;1.90;;;9.60;99.90;;;;;;4993126;28;20386;-72
2022/12/25 00:09:29;;;;;;;3.17;1.77;;;9.50;99.90;;;;;;4993295;28;20397;-72
2022/12/25 00:11:55;;;;;;;2.10;1.80;;;9.50;99.90;;;;;;4975715;28;20382;-72
2022/12/25 00:14:20;;;;;;;1.80;1.70;;;9.60;99.90;;;;;;4992533;28;20401;-72
2022/12/25 00:16:46;;;;;;;2.22;1.80;;;9.50;99.90;;;;;;4993430;28;20897;-72
2022/12/25 00:19:11;;;;;;;1.70;1.23;;;9.60;99.90;;;;;;4993255;28;20387;-72
2022/12/25 00:21:37;;;;;;;1.97;1.37;;;9.60;99.90;;;;;;4993335;28;20757;-72
2022/12/25 00:24:02;;;;;;;2.08;1.50;;;9.60;99.90;;;;;;4992306;28;20421;-73
2022/12/25 00:26:28;;;;;;;3.00;1.10;;;9.60;99.90;;;;;;4993148;28;20393;-72
2022/12/25 00:28:55;;;;;;;1.20;1.10;;;9.60;99.90;;;;;;4993376;28;20394;-72
2022/12/25 00:31:21;;;;;;;1.90;1.50;;;9.60;99.90;;;;;;4993279;28;20386;-72
2022/12/25 00:33:48;;;;;;;1.67;1.50;;;9.60;99.90;;;;;;4992241;28;20394;-72
2022/12/25 00:36:16;;;;;;;2.13;1.40;;;9.60;99.90;;;;;;4993014;28;20461;-72
2022/12/25 00:38:42;;;;;;;1.95;1.10;;;9.70;99.90;;;;;;4992818;28;20433;-72
2022/12/25 00:41:10;;;;;;;1.00;0.90;;;9.70;99.90;;;;;;4992948;28;20470;-72
2022/12/25 00:43:37;;;;;;;2.35;1.20;;;9.60;99.90;;;;;;4991995;28;20483;-72
2022/12/25 00:46:05;;;;;;;0.80;0.80;;;9.60;99.90;;;;;;4993002;28;20418;-72
2022/12/25 00:48:31;;;;;;;1.20;1.10;;;9.70;99.90;;;;;;4992780;28;20428;-72
2022/12/25 00:51:01;;;;;;;1.48;1.20;;;9.80;99.90;;;;;;4992912;28;20421;-72
2022/12/25 00:53:28;;;;;;;1.55;1.15;;;9.70;99.90;;;;;;4991985;28;20391;-73
2022/12/25 00:55:56;;;;;;;2.50;1.40;;;9.70;99.90;;;;;;4992941;28;20405;-72
2022/12/25 00:58:23;;;;;;;1.80;1.10;;;9.70;99.90;;;;;;4992564;28;20473;-72
2022/12/25 01:00:48;;;;;;;2.10;1.00;;;9.80;99.90;;;;;;4992551;28;20389;-72
2022/12/25 01:03:15;;;;;;;1.40;1.10;;;9.80;99.90;;;;;;4991671;28;20406;-72
2022/12/25 01:05:40;;;;;;;1.52;1.15;;;9.90;99.90;;;;;;4974885;28;20469;-72
2022/12/25 01:08:06;;;;;;;1.75;1.10;;;9.80;99.90;;;;;;4992342;28;20386;-72
2022/12/25 01:10:31;;;;;;;1.00;0.80;;;9.90;99.90;;;;;;4992162;28;20386;-72
2022/12/25 01:12:57;;;;;;;1.30;1.20;;;9.90;99.90;;;;;;4991695;28;20404;-72
2022/12/25 01:15:22;;;;;;;1.20;1.10;;;9.70;99.90;;;;;;4992236;28;20880;-72
2022/12/25 01:17:48;;;;;;;1.40;1.10;;;9.70;99.90;;;;;;4992189;28;20760;-72
2022/12/25 01:20:15;;;;;;;1.20;1.10;;;9.70;99.90;;;;;;4992389;28;20876;-73
2022/12/25 01:22:41;;;;;;;1.30;1.20;;;9.70;99.90;;;;;;4991624;28;20425;-72
2022/12/25 01:25:08;;;;;;;1.25;1.15;;;9.80;99.90;;;;;;4991803;28;20450;-72
2022/12/25 01:27:34;;;;;;;1.77;0.93;;;9.90;99.90;;;;;;4992119;28;20443;-72
2022/12/25 01:29:59;;;;;;;1.10;1.00;;;9.90;99.90;;;;;;4992461;28;20415;-72
2022/12/25 01:32:25;;;;;;;2.00;0.80;;;9.90;99.90;;;;;;4991591;28;20502;-72
2022/12/25 01:34:50;;;;;;;1.90;1.00;;;9.70;99.90;;;;;;4991418;28;20407;-72
2022/12/25 01:37:16;;;;;;;0.90;0.90;;;9.70;99.90;;;;;;4991982;28;20390;-72
2022/12/25 01:39:41;;;;;;;1.20;0.90;;;9.80;99.90;;;;;;4974270;28;20452;-72
2022/12/25 01:42:18;;;;;;;1.30;1.00;;;9.80;99.90;;;;;;4991762;28;21032;-72
2022/12/25 01:44:47;;;;;;;1.13;1.00;;;9.80;99.90;;;;;;4990935;28;20772;-73
2022/12/25 01:47:16;;;;;;;1.40;1.05;;;9.90;99.90;;;;;;4991553;28;20390;-72
2022/12/25 01:49:45;;;;;;;0.80;0.80;;;9.90;99.90;;;;;;4991493;28;20394;-72
2022/12/25 01:52:14;;;;;;;1.90;1.05;;;9.80;99.90;;;;;;4991711;28;20813;-71
2022/12/25 01:54:56;;;;;;;2.10;0.95;;;9.90;99.90;;;;;;4990963;28;20917;-72
2022/12/25 01:57:25;;;;;;;1.50;1.20;;;9.90;99.90;;;;;;4990805;28;20403;-72
2022/12/25 01:59:52;;;;;;;1.20;1.10;;;9.90;99.90;;;;;;4991427;28;20457;-72
2022/12/25 02:02:17;;;;;;;1.10;1.00;;;10.00;99.90;;;;;;4991420;28;20906;-72
2022/12/25 02:04:53;;;;;;;1.40;1.05;;;9.90;99.90;;;;;;4990598;28;20407;-72
2022/12/25 02:07:22;;;;;;;2.70;1.50;;;10.00;99.90;;;;;;4991416;28;20745;-72
2022/12/25 02:09:48;;;;;;;1.70;1.10;;;9.80;99.90;;;;;;4991052;28;20734;-72
2022/12/25 02:12:18;;;;;;;2.10;0.95;;;9.90;99.90;;;;;;4991118;28;20405;-72
2022/12/25 02:14:46;;;;;;;1.10;1.00;;;10.00;99.90;;;;;;4990417;28;20430;-72
2022/12/25 02:17:23;;;;;;;0.85;0.85;;;10.00;99.90;;;;;;4991121;28;20398;-72
2022/12/25 02:20:11;;;;;;;2.20;1.50;;;9.80;99.90;;;;;;4973531;28;20402;-72
2022/12/25 02:22:39;;;;;;;1.40;1.30;;;9.90;99.90;;;;;;4972766;28;20398;-72
2022/12/25 02:25:29;;;;;;;1.90;1.30;;;10.00;99.90;;;;;;4973386;28;20931;-73
2022/12/25 02:28:07;;;;;;;2.53;1.40;;;10.00;99.90;;;;;;4991003;28;20383;-72
2022/12/25 02:30:39;;;;;;;2.53;1.10;;;9.90;99.90;;;;;;4990858;28;20473;-72
2022/12/25 02:36:02;;;;;;;1.10;0.85;;;9.80;99.90;;;;;;4990877;28;20478;-72
2022/12/25 02:38:35;;;;;;;0.80;0.80;;;9.90;99.90;;;;;;4990850;28;20391;-72
2022/12/25 02:41:10;;;;;;;2.40;0.80;;;9.90;99.90;;;;;;4990776;28;20390;-72
2022/12/25 03:11:29;;;;;;;1.00;0.90;;;10.10;99.90;;;;;;4992438;28;20464;-72
2022/12/25 03:11:49;;;;;;;2.00;1.17;;;10.10;99.90;;;;;;4994169;28;20489;-72
2022/12/25 03:16:59;;;;;;;1.00;0.90;;;10.10;99.90;;;;;;4994498;28;20392;-73
2022/12/25 03:28:00;;;;;;;1.10;0.90;;;9.90;99.90;;;;;;4994680;28;20907;-72
2022/12/25 03:31:11;;;;;;;1.20;1.10;;;9.90;99.90;;;;;;4994133;28;20386;-72
2022/12/25 04:37:18;;;;;;;1.83;1.10;;;10.10;99.90;;;;;;4993783;28;20393;-72
2022/12/25 04:39:43;;;;;;;2.20;1.10;;;10.10;99.90;;;;;;4993283;28;20935;-72
2022/12/25 04:42:09;;;;;;;1.08;0.93;;;10.10;99.90;;;;;;4993111;28;20394;-72
2022/12/25 04:44:34;;;;;;;4.30;1.20;;;10.20;99.90;;;;;;4992389;28;20812;-72
2022/12/25 04:47:00;;;;;;;1.10;1.00;;;10.20;99.90;;;;;;4975583;28;20394;-72
2022/12/25 04:49:26;;;;;;;1.90;0.90;;;10.20;99.90;;;;;;4993028;28;20399;-72
2022/12/25 04:51:51;;;;;;;1.10;0.90;;;10.20;99.90;;;;;;4992972;28;20378;-72
2022/12/25 04:54:17;;;;;;;2.50;1.17;;;10.30;99.90;;;;;;4992219;28;20478;-72
2022/12/25 04:56:42;;;;;;;1.27;1.10;;;10.20;99.90;;;;;;4992790;28;20398;-72
2022/12/25 04:59:08;;;;;;;1.60;0.90;;;10.30;99.90;;;;;;4992830;28;20383;-72
2022/12/25 05:01:34;;;;;;;1.63;1.13;;;10.20;99.90;;;;;;4992773;28;20445;-72
2022/12/25 05:04:00;;;;;;;1.40;1.10;;;10.20;99.90;;;;;;4991939;28;20905;-72
2022/12/25 05:06:25;;;;;;;2.00;1.10;;;10.20;99.90;;;;;;4992633;28;20461;-72
2022/12/25 05:08:51;;;;;;;2.60;1.50;;;10.30;99.90;;;;;;4992576;28;20390;-72
2022/12/25 05:11:16;;;;;;;1.83;1.03;;;10.30;99.90;;;;;;4992474;28;20935;-72
2022/12/25 05:13:42;;;;;;;1.90;1.30;;;10.20;99.90;;;;;;4991880;28;20441;-72
2022/12/25 05:16:11;;;;;;;2.70;1.50;;;10.20;99.90;;;;;;4992703;28;20909;-73
2022/12/25 05:18:37;;;;;;;1.30;1.17;;;10.20;99.90;;;;;;4992442;28;20399;-72
2022/12/25 05:21:03;;;;;;;2.05;1.50;;;10.20;99.90;;;;;;4992609;28;20393;-72
2022/12/25 05:23:29;;;;;;;1.50;1.40;;;10.20;99.90;;;;;;4991602;28;20390;-72
2022/12/25 05:25:54;;;;;;;1.87;1.30;;;10.30;99.90;;;;;;4992195;28;20414;-72
2022/12/25 05:28:20;;;;;;;1.73;1.50;;;10.30;99.90;;;;;;4992294;28;20482;-72
2022/12/25 05:30:45;;;;;;;2.13;1.30;;;10.30;99.90;;;;;;4991434;28;20379;-72
2022/12/25 05:33:11;;;;;;;2.30;1.50;;;10.30;99.90;;;;;;4991782;28;20394;-72
2022/12/25 05:35:38;;;;;;;1.80;1.60;;;10.20;99.90;;;;;;4992651;28;20394;-73
2022/12/25 05:38:04;;;;;;;3.00;1.40;;;10.20;99.90;;;;;;4992212;28;20466;-72
2022/12/25 05:40:30;;;;;;;2.50;1.60;;;10.20;99.90;;;;;;4992077;28;20447;-72
2022/12/25 05:42:55;;;;;;;1.70;1.30;;;10.20;99.90;;;;;;4991282;28;20781;-72
2022/12/25 05:45:21;;;;;;;1.60;1.47;;;10.20;99.90;;;;;;4992019;28;20477;-73
2022/12/25 05:47:46;;;;;;;2.17;1.77;;;10.20;99.90;;;;;;4992011;28;20881;-72
2022/12/25 05:50:12;;;;;;;2.33;1.90;;;10.20;99.90;;;;;;4991824;28;20409;-72
2022/12/25 05:52:37;;;;;;;1.73;1.63;;;10.10;99.90;;;;;;4991082;28;20414;-72
2022/12/25 05:55:03;;;;;;;1.60;1.50;;;10.00;99.90;;;;;;4972754;28;20902;-72
2022/12/25 05:57:30;;;;;;;3.67;1.60;;;10.00;99.90;;;;;;4991791;28;20449;-72
2022/12/25 05:59:56;;;;;;;1.73;1.20;;;9.90;99.90;;;;;;5012560;23;20438;-70
2022/12/25 06:02:22;;;;;;;2.05;1.58;;;9.90;99.90;;;;;;4991608;28;20404;-71
2022/12/25 06:04:48;;;;;;;1.50;1.40;;;9.80;99.90;;;;;;4990893;28;20889;-71
2022/12/25 06:07:13;;;;;;;1.90;1.58;;;9.70;99.90;;;;;;4991600;28;20478;-71
2022/12/25 06:09:39;;;;;;;2.90;1.50;;;9.70;99.90;;;;;;4991641;28;20444;-71
2022/12/25 06:12:04;;;;;;;2.30;2.10;;;9.80;99.90;;;;;;4991448;28;20395;-71
2022/12/25 06:14:30;;;;;;;1.80;1.50;;;9.70;99.90;;;;;;4990735;28;20449;-71
2022/12/25 06:16:55;;;;;;;1.60;1.50;;;9.70;99.90;;;;;;4991486;28;20404;-70
2022/12/25 06:19:21;;;;;;;2.20;1.70;;;9.70;99.90;;;;;;4991363;28;20386;-71
2022/12/25 06:21:47;;;;;;;1.30;1.20;;;9.70;99.90;;;;;;4991442;28;20390;-71
2022/12/25 06:24:13;;;;;;;3.13;1.60;;;9.70;99.90;;;;;;4990461;28;20402;-72
2022/12/25 06:26:38;;;;;;;1.77;1.67;;;9.60;99.90;;;;;;4976328;28;20414;-71
2022/12/25 06:29:04;;;;;;;1.83;1.53;;;9.60;99.90;;;;;;4971902;28;20450;-71
2022/12/25 06:31:30;;;;;;;1.93;1.70;;;9.60;99.90;;;;;;4972005;28;20395;-72
2022/12/25 06:33:55;;;;;;;1.88;1.38;;;9.50;99.90;;;;;;4971044;28;20391;-71
2022/12/25 06:36:24;;;;;;;1.60;1.50;;;9.50;99.90;;;;;;4971803;28;20394;-71
2022/12/25 06:38:50;;;;;;;1.60;1.50;;;9.50;99.90;;;;;;4971858;28;20388;-71
2022/12/25 06:41:18;;;;;;;2.00;1.60;;;9.40;99.90;;;;;;4971824;28;20762;-71
2022/12/25 06:43:50;;;;;;;3.22;1.38;;;9.40;99.90;;;;;;4970834;28;20391;-71
2022/12/25 06:46:17;;;;;;;1.92;1.30;;;9.30;99.90;;;;;;4971622;28;20458;-71
2022/12/25 06:48:48;;;;;;;3.30;1.70;;;9.30;99.90;;;;;;4971596;28;20423;-71
2022/12/25 06:51:15;;;;;;;2.20;1.60;;;9.30;99.90;;;;;;4971762;28;20384;-72
2022/12/25 06:53:40;;;;;;;5.75;3.50;;;9.30;99.90;;;;;;4970937;28;20766;-71
2022/12/25 06:56:14;;;;;;;2.40;1.90;;;9.40;99.90;;;;;;4971682;28;20395;-72
2022/12/25 06:59:07;;;;;;;2.47;1.50;;;9.30;99.90;;;;;;4971443;28;20384;-73
2022/12/25 07:01:55;;;;;;;3.00;2.00;;;9.20;99.90;;;;;;4971613;28;20414;-72
2022/12/25 07:04:34;;;;;;;2.70;1.83;;;9.20;99.90;;;;;;4970662;28;20399;-72
2022/12/25 07:07:00;;;;;;;1.90;1.80;;;9.20;99.90;;;;;;4971569;28;20475;-72
2022/12/25 07:09:26;;;;;;;2.15;2.00;;;9.20;99.90;;;;;;4982797;28;20401;-72
2022/12/25 07:11:51;;;;;;;2.60;2.10;;;9.20;99.90;;;;;;4990855;28;20869;-72
2022/12/25 07:14:20;;;;;;;3.47;2.13;;;9.20;99.90;;;;;;4990002;28;20417;-72
2022/12/25 07:16:45;;;;;;;2.50;2.15;;;9.20;99.90;;;;;;4990772;28;20390;-72
2022/12/25 07:19:11;;;;;;;2.30;2.10;;;9.20;99.90;;;;;;4990692;28;20397;-73
2022/12/25 07:21:36;;;;;;;2.53;2.33;;;9.20;99.90;;;;;;4990780;28;20401;-73
2022/12/25 07:24:02;;;;;;;2.80;2.03;;;9.20;99.90;;;;;;4989716;28;20865;-72
2022/12/25 07:26:28;;;;;;;3.00;1.90;;;9.20;99.90;;;;;;4977283;28;20404;-73
2022/12/25 07:28:54;;;;;;;2.30;2.10;;;9.10;99.90;;;;;;4971483;28;20921;-72
2022/12/25 07:31:20;;;;;;;3.10;2.72;;;9.20;99.90;;;;;;4970501;28;20490;-72
2022/12/25 07:33:46;;;;;;;2.38;2.17;;;9.20;99.90;;;;;;4970286;28;20468;-72
2022/12/25 07:36:12;;;;;;;2.88;2.10;;;9.20;99.90;;;;;;4966792;28;20404;-72
2022/12/25 07:38:38;;;;;;;2.55;2.35;;;9.20;99.90;;;;;;4967068;28;20392;-71
2022/12/25 07:41:06;;;;;;;2.30;2.10;;;9.20;99.90;;;;;;4953858;28;20396;-72
2022/12/25 07:43:31;;;;;;;3.20;2.30;;;9.20;99.90;;;;;;4951155;29;20433;-72
2022/12/25 07:45:59;;;;;;;2.85;2.30;;;9.20;99.90;;;;;;4952045;29;20504;-72
2022/12/25 07:48:25;;;;;;;3.83;2.47;;;9.20;99.90;;;;;;4951836;29;20393;-72
2022/12/25 07:50:56;;;;;;;4.50;2.40;;;9.20;99.90;;;;;;4951955;29;20386;-72
2022/12/25 07:53:21;;;;;;;4.35;2.58;;;9.20;99.90;;;;;;4951162;28;20394;-74
2022/12/25 07:55:47;;;;;;;3.25;2.95;;;9.20;99.90;;;;;;4954817;29;20881;-72
2022/12/25 07:58:12;;;;;;;3.42;2.63;;;9.10;99.90;;;;;;4955305;28;20402;-72
2022/12/25 08:00:38;;;;;;;3.53;2.70;;;9.10;99.90;;;;;;4955179;29;20562;-72
2022/12/25 08:03:03;;;;;;;3.10;2.80;;;9.10;99.90;;;;;;4937476;29;20433;-72
2022/12/25 08:05:31;;;;;;;3.30;3.00;;;9.20;99.90;;;;;;4955028;29;20424;-72
2022/12/25 08:07:57;;;;;;;2.90;2.70;;;9.20;99.90;;;;;;4955181;29;20756;-71
2022/12/25 08:10:22;;;;;;;3.27;2.97;;;9.20;99.90;;;;;;4993184;28;20386;-72
2022/12/25 08:12:48;;;;;;;5.60;3.03;;;9.20;99.90;;;;;;4993077;28;20426;-72
2022/12/25 08:15:13;;;;;;;3.50;3.20;;;9.10;99.90;;;;;;4993642;28;20484;-72
2022/12/25 08:17:39;;;;;;;3.20;2.90;;;9.20;99.90;;;;;;4993780;28;20935;-72
2022/12/25 08:20:05;;;;;;;3.40;3.10;;;9.20;99.90;;;;;;4993427;28;20402;-71
2022/12/25 08:22:30;;;;;;;3.10;2.80;;;9.30;99.90;;;;;;4992904;28;20390;-72
2022/12/25 08:24:56;;;;;;;2.85;2.55;;;9.40;99.90;;;;;;4991806;28;20973;-72
2022/12/25 08:27:21;;;;;;;3.30;2.60;;;9.40;99.90;;;;;;4973952;28;20397;-72
2022/12/25 08:29:47;;;;;;;2.90;2.60;;;9.40;99.90;;;;;;4974120;28;20419;-72
2022/12/25 08:32:12;;;;;;;5.17;2.60;;;9.50;99.90;;;;;;4973976;28;20397;-73
2022/12/25 08:34:38;;;;;;;2.80;2.40;;;9.60;99.90;;;;;;4955672;28;20459;-73
2022/12/25 08:37:03;;;;;;;3.00;2.80;;;9.60;99.90;;;;;;4973754;28;20405;-72
2022/12/25 08:39:29;;;;;;;3.23;2.93;;;9.70;99.90;;;;;;4973636;28;20948;-73
2022/12/25 08:41:54;;;;;;;2.67;2.40;;;9.70;99.90;;;;;;4973697;28;20455;-73
2022/12/25 08:44:20;;;;;;;3.60;2.67;;;9.70;99.90;;;;;;4972743;28;20390;-72
2022/12/25 08:46:45;;;;;;;2.60;2.30;;;9.90;99.90;;;;;;4973558;28;20447;-72
2022/12/25 08:49:11;;;;;;;3.13;2.70;;;9.90;99.90;;;;;;4973463;28;20404;-73
2022/12/25 08:51:36;;;;;;;2.90;2.60;;;9.90;99.90;;;;;;4956210;28;20408;-73
2022/12/25 08:54:02;;;;;;;2.83;2.60;;;10.00;99.90;;;;;;4972664;28;20388;-73
2022/12/25 08:56:28;;;;;;;3.58;2.50;;;10.10;99.90;;;;;;4956121;28;20438;-73
2022/12/25 08:58:53;;;;;;;2.60;2.40;;;10.20;99.90;;;;;;4973203;28;20404;-72
2022/12/25 09:01:19;;;;;;;2.45;2.25;;;10.20;99.90;;;;;;4973548;28;20388;-73
2022/12/25 09:03:44;;;;;;;2.50;2.30;;;10.40;99.90;;;;;;4972500;28;20403;-73
2022/12/25 09:06:13;;;;;;;2.70;2.50;;;10.40;99.90;;;;;;4973013;28;20404;-72
2022/12/25 09:08:39;;;;;;;3.40;2.45;;;10.50;99.90;;;;;;4978419;28;20889;-73
2022/12/25 09:11:15;;;;;;;3.10;2.80;;;10.50;99.90;;;;;;4992651;28;20394;-73
2022/12/25 09:13:41;;;;;;;2.60;2.40;;;10.70;99.90;;;;;;4991736;28;20412;-73
2022/12/25 09:16:09;;;;;;;2.80;2.50;;;10.80;99.90;;;;;;4992496;28;20398;-73
2022/12/25 09:18:35;;;;;;;2.78;2.58;;;10.80;99.90;;;;;;4965579;28;20411;-73
2022/12/25 09:21:04;;;;;;;2.70;2.50;;;10.90;99.90;;;;;;4972816;28;20396;-73
2022/12/25 09:23:31;;;;;;;2.92;2.63;;;11.00;99.90;;;;;;4972162;28;20420;-73
2022/12/25 09:26:04;;;;;;;2.25;2.05;;;11.10;99.90;;;;;;4946088;29;20801;-73
2022/12/25 09:28:31;;;;;;;2.95;2.47;;;11.00;99.90;;;;;;4953595;29;20389;-74
2022/12/25 09:30:57;;;;;;;3.72;2.60;;;11.20;99.90;;;;;;4960518;28;20396;-74
2022/12/25 09:33:23;;;;;;;3.15;2.58;;;11.30;99.90;;;;;;4971761;28;20851;-74
2022/12/25 09:36:00;;;;;;;2.55;2.35;;;11.50;99.90;;;;;;4972476;28;20396;-72
2022/12/25 09:38:25;;;;;;;3.05;2.75;;;11.60;99.90;;;;;;4972774;28;20756;-72
2022/12/25 09:41:05;;;;;;;3.40;2.70;;;11.70;99.90;;;;;;4972332;28;20395;-72
2022/12/25 09:43:37;;;;;;;3.15;2.75;;;11.90;99.90;;;;;;4971762;28;20388;-72
2022/12/25 09:46:06;;;;;;;3.10;2.90;;;12.10;99.90;;;;;;4972360;28;20543;-72
2022/12/25 09:48:34;;;;;;;3.33;3.00;;;12.20;99.90;;;;;;4972418;28;20871;-72
2022/12/25 09:51:11;;;;;;;3.80;2.75;;;12.40;99.90;;;;;;4972323;28;20391;-72
2022/12/25 09:53:50;;;;;;;2.85;2.65;;;12.30;99.90;;;;;;4971659;28;20389;-72
2022/12/25 09:56:25;;;;;;;4.00;3.60;;;12.00;99.90;;;;;;4972117;28;20444;-72
2022/12/25 09:58:52;;;;;;;5.20;3.75;;;11.90;99.90;;;;;;4972164;28;20463;-73
2022/12/25 10:01:37;;;;;;;5.03;4.03;;;12.00;99.90;;;;;;4971379;28;20387;-73
2022/12/25 10:04:23;;;;;;;5.95;4.28;;;11.90;99.90;;;;;;4971486;28;20399;-72
2022/12/25 10:07:10;;;;;;;4.53;3.70;;;11.60;99.90;;;;;;4971914;28;20384;-72
2022/12/25 10:10:08;;;;;;;4.80;4.20;;;11.30;99.90;;;;;;4984916;28;20398;-72
2022/12/25 10:12:41;;;;;;;5.22;4.72;;;11.30;99.90;;;;;;4985212;28;20402;-72
2022/12/25 10:15:24;;;;;;;5.18;4.47;;;11.30;99.90;;;;;;4991401;28;20418;-72
2022/12/25 10:18:05;;;;;;;5.70;5.10;;;11.40;99.90;;;;;;4990970;28;20386;-72
2022/12/25 10:20:51;;;;;;;5.38;4.88;;;11.50;99.90;;;;;;4991199;28;20449;-73
2022/12/25 10:23:37;;;;;;;5.05;4.38;;;11.60;99.90;;;;;;4990274;28;20876;-73
2022/12/25 10:26:16;;;;;;;5.07;4.57;;;11.80;99.90;;;;;;4980888;28;20420;-73
2022/12/25 10:28:56;;;;;;;6.13;5.53;;;11.70;99.90;;;;;;4971807;28;20391;-73
2022/12/25 10:31:25;;;;;;;6.25;5.65;;;11.70;99.90;;;;;;4954316;28;20424;-72
2022/12/25 10:33:52;;;;;;;6.40;5.80;;;11.70;99.90;;;;;;4971001;28;20393;-72
2022/12/25 10:36:24;;;;;;;5.90;5.30;;;11.70;99.90;;;;;;4971112;28;20556;-73
2022/12/25 10:38:50;;;;;;;6.47;5.88;;;11.80;99.90;;;;;;4971219;28;20450;-74
2022/12/25 10:41:38;;;;;;;6.35;5.60;;;11.70;99.90;;;;;;4971175;28;21526;-74
2022/12/25 10:44:23;;;;;;;6.65;5.95;;;11.60;99.90;;;;;;4969777;28;20450;-74
2022/12/25 10:46:54;;;;;;;6.90;6.07;;;11.50;99.90;;;;;;4971490;28;20399;-73
2022/12/25 10:49:22;;;;;;;7.40;6.20;;;11.60;99.90;;;;;;4971473;28;20388;-74
2022/12/25 10:51:48;;;;;;;6.40;5.47;;;11.60;99.90;;;;;;4971416;28;20443;-74
2022/12/25 10:54:19;;;;;;;6.30;5.70;;;11.80;99.90;;;;;;4970715;28;20898;-73
2022/12/25 10:56:55;;;;;;;6.30;5.70;;;11.70;99.90;;;;;;4971474;28;20396;-73
2022/12/25 10:59:21;;;;;;;6.82;6.15;;;11.60;99.90;;;;;;4971220;28;20407;-74
2022/12/25 11:01:46;;;;;;;7.18;6.22;;;11.70;99.90;;;;;;4971399;28;20415;-75
2022/12/25 11:04:27;;;;;;;6.30;5.70;;;11.60;99.90;;;;;;4970732;28;20386;-74
2022/12/25 11:07:28;;;;;;;6.10;5.50;;;11.60;99.90;;;;;;4971316;28;20473;-73
2022/12/25 11:10:00;;;;;;;6.30;5.70;;;11.80;99.90;;;;;;4892850;29;20446;-73
2022/12/25 11:12:30;;;;;;;6.53;5.88;;;11.70;99.90;;;;;;4958357;28;20763;-73
2022/12/25 11:14:59;;;;;;;7.47;6.03;;;11.60;99.90;;;;;;4971242;28;21007;-73
2022/12/25 11:17:26;;;;;;;6.35;5.30;;;11.70;99.90;;;;;;4971346;28;20487;-73
2022/12/25 11:19:57;;;;;;;5.80;5.20;;;11.60;99.90;;;;;;4971301;28;20396;-72
2022/12/25 11:22:23;;;;;;;5.78;5.18;;;12.00;99.90;;;;;;4971153;28;20494;-71
2022/12/25 11:24:48;;;;;;;5.45;4.95;;;12.20;99.90;;;;;;4970361;28;20985;-72
2022/12/25 11:27:22;;;;;;;6.30;5.20;;;12.50;99.90;;;;;;4951850;29;20402;-72
2022/12/25 11:30:00;;;;;;;5.80;5.00;;;12.70;99.90;;;;;;4953031;28;20473;-73
2022/12/25 11:32:36;;;;;;;5.75;4.32;;;12.90;99.90;;;;;;4973533;28;20450;-71
2022/12/25 11:35:02;;;;;;;5.20;4.60;;;13.00;99.90;;;;;;4956849;28;20462;-74
2022/12/25 11:37:47;;;;;;;5.72;4.40;;;13.50;99.90;;;;;;4974669;28;20391;-73
2022/12/25 11:40:23;;;;;;;5.60;5.10;;;13.60;99.90;;;;;;4972402;28;20891;-73
2022/12/25 11:42:53;;;;;;;5.60;5.10;;;14.30;99.90;;;;;;4973711;28;20403;-74
2022/12/25 11:45:35;;;;;;;5.50;4.55;;;15.00;99.90;;;;;;4963627;28;20769;-74
2022/12/25 11:48:21;;;;;;;5.50;5.00;;;14.60;99.90;;;;;;4974578;28;20395;-73
2022/12/25 11:50:54;;;;;;;5.00;4.50;;;14.20;99.90;;;;;;4968591;28;20420;-73
2022/12/25 11:53:43;;;;;;;4.30;3.90;;;14.60;99.90;;;;;;4956427;28;20748;-74
2022/12/25 11:56:19;;;;;;;4.75;4.25;;;14.80;99.90;;;;;;4943588;28;20400;-74
2022/12/25 11:58:53;;;;;;;5.10;4.60;;;15.20;99.90;;;;;;4974220;28;20408;-74
2022/12/25 12:01:33;;;;;;;5.38;4.85;;;15.10;99.90;;;;;;5009843;23;21015;-73
2022/12/25 12:04:00;;;;;;;5.90;5.40;;;14.90;99.90;;;;;;4988940;28;20383;-73
2022/12/25 12:06:45;;;;;;;8.00;4.90;;;15.00;99.90;;;;;;4993293;28;20980;-76
2022/12/25 12:09:39;;;;;;;4.95;4.45;;;15.10;99.90;;;;;;4993485;28;20756;-75
2022/12/25 12:12:17;;;;;;;4.90;4.50;;;15.70;99.90;;;;;;4987695;28;20811;-74
2022/12/25 12:14:45;;;;;;;4.18;3.80;;;16.10;99.90;;;;;;4985412;28;20414;-75
2022/12/25 12:17:13;;;;;;;5.65;4.50;;;15.40;99.90;;;;;;4974872;28;20407;-75
2022/12/25 12:19:41;;;;;;;5.40;4.90;;;15.40;99.90;;;;;;4983868;28;20505;-75
2022/12/25 12:22:20;;;;;;;4.90;4.50;;;15.10;99.90;;;;;;4985345;28;20481;-76
2022/12/25 12:24:52;;;;;;;7.03;5.30;;;15.70;99.90;;;;;;4992304;28;20769;-76
2022/12/25 12:27:30;;;;;;;6.00;4.95;;;15.70;99.90;;;;;;4993279;28;20406;-76
2022/12/25 12:29:58;;;;;;;5.20;4.80;;;15.40;99.90;;;;;;4993507;28;20379;-76
2022/12/25 12:32:23;;;;;;;5.30;4.80;;;14.50;99.90;;;;;;4992762;28;20892;-76
2022/12/25 12:34:49;;;;;;;6.20;5.60;;;14.60;99.90;;;;;;4992917;28;20402;-76
2022/12/25 12:37:31;;;;;;;4.85;4.43;;;14.00;99.90;;;;;;4974524;28;20394;-76
2022/12/25 12:39:58;;;;;;;5.10;4.40;;;13.80;99.90;;;;;;4988270;28;20465;-76
2022/12/25 12:42:31;;;;;;;6.10;4.70;;;14.00;99.90;;;;;;4982700;28;20402;-76
2022/12/25 12:45:07;;;;;;;5.38;4.40;;;13.70;99.90;;;;;;4973942;28;20452;-77
2022/12/25 12:47:36;;;;;;;5.70;5.20;;;13.70;99.90;;;;;;4973570;28;20403;-76
2022/12/25 12:50:02;;;;;;;5.60;5.10;;;13.90;99.90;;;;;;4964024;28;20980;-76
2022/12/25 12:52:35;;;;;;;5.57;5.07;;;13.90;99.90;;;;;;4986583;28;20492;-76
2022/12/25 12:55:04;;;;;;;5.05;4.55;;;14.10;99.90;;;;;;4993204;28;20382;-76
2022/12/25 12:57:38;;;;;;;6.72;4.80;;;14.10;99.90;;;;;;4992898;28;20909;-70
2022/12/25 13:00:18;;;;;;;6.15;4.93;;;14.30;99.90;;;;;;4981165;28;20408;-71
2022/12/25 13:03:22;;;;;;;7.07;4.80;;;14.10;99.90;;;;;;4984696;28;20398;-71
2022/12/25 13:06:01;;;;;;;5.80;5.20;;;14.10;99.90;;;;;;4923458;28;20424;-71
2022/12/25 13:08:41;;;;;;;5.90;5.30;;;14.10;99.90;;;;;;4981132;28;20919;-74
2022/12/25 13:11:23;;;;;;;7.47;5.10;;;14.30;99.90;;;;;;4984355;28;20394;-74
2022/12/25 13:13:51;;;;;;;5.90;4.70;;;14.20;99.90;;;;;;4974096;28;20757;-74
2022/12/25 13:16:39;;;;;;;5.63;5.00;;;14.20;99.90;;;;;;4992342;28;20457;-75
2022/12/25 13:19:07;;;;;;;5.35;4.85;;;14.20;99.90;;;;;;4992604;28;20409;-72
2022/12/25 13:21:33;;;;;;;4.90;4.40;;;14.20;99.90;;;;;;4992234;28;20401;-72
2022/12/25 13:24:07;;;;;;;6.75;5.00;;;14.20;99.90;;;;;;4991543;28;20379;-74
2022/12/25 13:26:33;;;;;;;6.45;4.85;;;14.30;99.90;;;;;;4991835;28;20422;-70
2022/12/25 13:28:59;;;;;;;5.22;4.30;;;14.30;99.90;;;;;;4992173;28;20410;-71
2022/12/25 13:31:29;;;;;;;5.85;4.50;;;14.30;99.90;;;;;;4974481;28;20398;-71
2022/12/25 13:34:25;;;;;;;8.00;5.00;;;14.40;99.90;;;;;;4972791;28;20452;-72
2022/12/25 13:36:51;;;;;;;5.53;4.13;;;14.50;99.90;;;;;;4990823;28;20429;-75
2022/12/25 13:39:17;;;;;;;6.20;4.37;;;14.50;99.90;;;;;;4991671;28;20472;-76
2022/12/25 13:42:04;;;;;;;5.80;4.30;;;14.60;99.90;;;;;;4991905;28;20383;-76
2022/12/25 13:44:39;;;;;;;5.20;4.20;;;14.60;99.90;;;;;;4991252;28;20434;-76
2022/12/25 13:47:31;;;;;;;3.10;2.70;;;14.50;99.90;;;;;;4992117;28;20386;-76
2022/12/25 13:50:00;;;;;;;3.50;2.90;;;14.90;99.90;;;;;;4965605;28;20400;-76
2022/12/25 13:52:36;;;;;;;4.40;3.20;;;14.90;99.90;;;;;;4954360;28;20389;-75
2022/12/25 13:55:12;;;;;;;3.58;3.25;;;14.90;99.90;;;;;;4972675;28;20605;-75
2022/12/25 13:58:05;;;;;;;4.18;3.70;;;14.90;99.90;;;;;;4980769;28;20396;-76
2022/12/25 14:00:48;;;;;;;4.70;3.70;;;14.80;99.90;;;;;;4980738;28;20421;-75
2022/12/25 14:03:23;;;;;;;4.35;3.63;;;14.60;99.90;;;;;;4973115;28;20480;-76
2022/12/25 14:06:00;;;;;;;3.60;3.30;;;14.60;99.90;;;;;;4969568;28;20449;-76
2022/12/25 14:08:32;;;;;;;3.90;3.30;;;14.60;99.90;;;;;;4990757;28;21018;-75
2022/12/25 14:11:02;;;;;;;3.23;2.90;;;14.50;99.90;;;;;;4973254;28;20401;-76
2022/12/25 14:13:31;;;;;;;4.80;4.30;;;14.60;99.90;;;;;;4990000;28;20398;-76
2022/12/25 14:15:58;;;;;;;6.53;5.10;;;14.40;99.90;;;;;;4991518;28;20391;-76
2022/12/25 14:18:24;;;;;;;4.00;3.60;;;14.30;99.90;;;;;;4974225;28;20438;-75
2022/12/25 14:20:58;;;;;;;5.53;4.00;;;14.20;99.90;;;;;;4991780;28;20885;-76
2022/12/25 14:23:25;;;;;;;4.05;3.42;;;14.20;99.90;;;;;;4972910;28;20457;-76
2022/12/25 14:25:51;;;;;;;4.20;3.28;;;14.20;99.90;;;;;;4991390;28;20413;-76
2022/12/25 14:28:32;;;;;;;2.90;2.22;;;14.20;99.90;;;;;;4991255;28;20390;-76
2022/12/25 14:31:00;;;;;;;4.65;2.70;;;14.20;99.90;;;;;;4991018;28;20402;-76
2022/12/25 14:33:29;;;;;;;2.00;1.73;;;14.10;99.90;;;;;;4990418;28;20406;-75
2022/12/25 14:35:55;;;;;;;3.10;2.35;;;14.30;99.90;;;;;;4991216;28;20413;-75
2022/12/25 14:38:26;;;;;;;2.50;2.30;;;14.20;99.90;;;;;;4987677;28;20565;-76
2022/12/25 14:41:31;;;;;;;2.15;1.60;;;14.10;99.90;;;;;;4978457;28;20400;-75
2022/12/25 14:43:59;;;;;;;2.42;1.50;;;14.40;99.90;;;;;;4952134;28;20748;-76
2022/12/25 14:46:28;;;;;;;2.30;2.10;;;14.50;99.90;;;;;;4982612;28;20413;-75
2022/12/25 14:49:06;;;;;;;1.50;1.35;;;14.20;99.90;;;;;;4973729;28;20383;-76
2022/12/25 14:51:34;;;;;;;1.65;1.55;;;14.30;99.90;;;;;;4974437;28;20587;-75